SLLP/LPB METAR and TAF weather

Enter ICAO airport designator
Station Type Date Time Source
SLLP METAR 2022/08/12 15:00 UTC NOAA

SLLP 121500Z 23008KT 9999 NSC 11/M12 Q1040


Station Type Date Time Source
SLLP Decoded METAR 2022/08/12 15:00 UTC NOAA

La Paz / Alto, Bolivia (SLLP) 16-31S 068-11W 4038M
Aug 12, 2022 - 11:00 AM EDT / 2022.08.12 1500 UTC
Wind: from the SW (230 degrees) at 9 MPH (8 KT):0
Visibility: greater than 7 mile(s):0
Temperature: 51 F (11 C)
Dew Point: 10 F (-12 C)
Relative Humidity: 18%
Pressure (altimeter): 30.71 in. Hg (1040 hPa)
ob: SLLP 121500Z 23008KT 9999 NSC 11/M12 Q1040
cycle: 15

Station Type Date Time Source
SLLP TAF 2022/08/12 12:45 UTC NOAA

TAF SLLP 121000Z 1212/1312 03006KT 9999 FEW017 TX17/1219Z TNM05/1310Z
BECMG 1214/1217 23010KT
BECMG 1222/1301 04005KT

Example: see airport list